createdAt,value
2023-01-17T00:02:23.471Z,3.95
2023-01-17T00:05:09.023Z,3.87
2023-01-17T00:07:55.017Z,3.79
2023-01-17T00:10:27.848Z,3.78
2023-01-17T00:13:03.278Z,3.71
2023-01-17T00:15:31.888Z,3.67
2023-01-17T00:17:59.297Z,3.71
2023-01-17T00:20:49.415Z,3.60
2023-01-17T00:23:41.299Z,3.55
2023-01-17T00:26:19.510Z,3.63
2023-01-17T00:28:46.995Z,3.46
2023-01-17T00:31:16.398Z,3.57
2023-01-17T00:33:43.661Z,3.55
2023-01-17T00:36:11.540Z,3.40
2023-01-17T00:38:41.937Z,3.31
2023-01-17T00:41:14.932Z,3.22
2023-01-17T00:44:00.669Z,3.20
2023-01-17T00:46:46.127Z,3.08
2023-01-17T00:49:32.459Z,3.01
2023-01-17T00:52:18.316Z,2.99
2023-01-17T00:55:03.833Z,3.08
2023-01-17T00:57:49.545Z,2.92
2023-01-17T01:00:38.108Z,2.83
2023-01-17T01:03:30.792Z,2.95
2023-01-17T01:06:16.284Z,2.83
2023-01-17T01:09:01.827Z,2.94
2023-01-17T01:11:47.302Z,2.76
2023-01-17T01:14:32.813Z,2.78
2023-01-17T01:17:18.346Z,2.80
2023-01-17T01:20:03.798Z,2.93
2023-01-17T01:22:49.232Z,2.82
2023-01-17T01:25:35.921Z,3.04
2023-01-17T01:28:30.633Z,2.96
2023-01-17T01:31:23.328Z,2.90
2023-01-17T01:33:53.721Z,3.09
2023-01-17T01:36:21.459Z,3.07
2023-01-17T01:38:50.191Z,3.06
2023-01-17T01:41:18.133Z,3.22
2023-01-17T01:43:52.963Z,3.23
2023-01-17T01:46:41.200Z,3.20
2023-01-17T01:49:25.739Z,3.38
2023-01-17T01:51:59.802Z,3.33
2023-01-17T01:54:46.705Z,3.30
2023-01-17T01:57:46.799Z,3.13
2023-01-17T02:12:45.815Z,2.65
2023-01-17T02:15:13.103Z,2.96
2023-01-17T02:22:55.666Z,3.00
2023-01-17T02:29:33.199Z,2.99
2023-01-17T02:33:11.006Z,3.41
2023-01-17T02:35:59.292Z,3.52
2023-01-17T02:39:09.661Z,3.52
2023-01-17T02:41:46.056Z,3.63
2023-01-17T02:44:20.096Z,3.81
2023-01-17T02:46:54.309Z,3.90
2023-01-17T02:49:28.129Z,3.83
2023-01-17T02:52:21.458Z,3.88
2023-01-17T02:55:26.121Z,3.78
2023-01-17T02:58:18.415Z,3.77
2023-01-17T03:01:40.340Z,3.94
2023-01-17T03:04:22.852Z,3.96
2023-01-17T03:07:09.759Z,3.92
2023-01-17T03:09:38.507Z,4.07
2023-01-17T03:12:06.735Z,4.10
2023-01-17T03:14:33.905Z,4.16
2023-01-17T03:17:00.936Z,4.11
2023-01-17T03:19:27.940Z,4.22
2023-01-17T03:21:54.965Z,4.12
2023-01-17T03:24:21.923Z,4.15
2023-01-17T03:26:48.913Z,4.22
2023-01-17T03:29:16.589Z,4.14
2023-01-17T03:31:43.648Z,4.09
2023-01-17T03:34:10.974Z,4.22
2023-01-17T03:36:38.010Z,4.24
2023-01-17T03:39:05.116Z,4.17
2023-01-17T03:41:34.485Z,4.18
2023-01-17T03:44:01.528Z,4.26
2023-01-17T03:46:28.740Z,4.30
2023-01-17T03:48:55.785Z,4.22
2023-01-17T03:51:23.405Z,4.30
2023-01-17T03:53:51.887Z,4.22
2023-01-17T03:56:19.090Z,4.31
2023-01-17T03:58:46.215Z,4.24
2023-01-17T04:01:13.398Z,4.40
2023-01-17T04:03:40.800Z,4.37
2023-01-17T04:06:08.087Z,4.50
2023-01-17T04:08:35.096Z,4.44
2023-01-17T04:11:02.517Z,4.51
2023-01-17T04:13:29.585Z,4.53
2023-01-17T04:15:59.125Z,4.52
2023-01-17T04:18:26.573Z,4.42
2023-01-17T04:20:53.697Z,4.46
2023-01-17T04:23:20.770Z,4.47
2023-01-17T04:25:47.760Z,4.56
2023-01-17T04:28:14.893Z,4.50
2023-01-17T04:30:41.940Z,4.54
2023-01-17T04:33:09.019Z,4.58
2023-01-17T04:35:38.849Z,4.61
2023-01-17T04:38:06.155Z,4.41
2023-01-17T04:40:45.181Z,4.54
2023-01-17T04:43:12.204Z,4.61
2023-01-17T04:45:39.303Z,4.64
2023-01-17T04:48:07.345Z,4.59
2023-01-17T04:50:34.486Z,4.59
2023-01-17T04:53:01.885Z,4.63
2023-01-17T04:55:29.047Z,4.63
2023-01-17T04:57:56.215Z,4.72
2023-01-17T05:00:24.292Z,4.73
2023-01-17T05:02:52.059Z,4.74
2023-01-17T05:05:19.161Z,4.76
2023-01-17T05:07:57.108Z,4.80
2023-01-17T05:10:25.178Z,4.65
2023-01-17T05:12:57.342Z,4.75
2023-01-17T05:15:26.335Z,4.72
2023-01-17T05:17:54.728Z,4.73
2023-01-17T05:20:27.845Z,4.73
2023-01-17T05:22:56.982Z,4.76
2023-01-17T05:25:30.985Z,4.72
2023-01-17T05:28:02.011Z,4.80
2023-01-17T05:30:32.578Z,4.75
2023-01-17T05:33:00.036Z,4.78
2023-01-17T05:35:32.675Z,4.71
2023-01-17T05:37:59.762Z,4.83
2023-01-17T05:40:32.052Z,4.89
2023-01-17T05:43:01.349Z,4.92
2023-01-17T05:45:31.453Z,4.86
2023-01-17T05:47:59.199Z,4.83
2023-01-17T05:50:31.362Z,4.84
2023-01-17T05:53:09.922Z,4.88
2023-01-17T05:55:38.257Z,4.87
2023-01-17T05:58:07.261Z,4.83
2023-01-17T06:00:34.782Z,4.87
2023-01-17T06:03:02.040Z,4.91
2023-01-17T06:05:30.404Z,4.90
2023-01-17T06:07:58.310Z,4.95
2023-01-17T06:10:27.193Z,4.88
2023-01-17T06:13:15.142Z,4.97
2023-01-17T06:15:43.143Z,4.90
2023-01-17T06:18:14.461Z,4.97
2023-01-17T06:20:45.085Z,4.89
2023-01-17T06:23:14.709Z,4.93
2023-01-17T06:25:47.287Z,4.92
2023-01-17T06:28:21.001Z,4.89
2023-01-17T06:30:48.792Z,4.91
2023-01-17T06:33:16.439Z,4.92
2023-01-17T06:35:52.359Z,4.90
2023-01-17T06:38:20.161Z,4.90
2023-01-17T06:40:47.782Z,4.90
2023-01-17T06:43:14.876Z,4.94
2023-01-17T06:45:42.235Z,4.86
2023-01-17T06:48:09.335Z,4.86
2023-01-17T06:50:36.363Z,4.92
2023-01-17T06:53:06.852Z,4.92
2023-01-17T06:55:35.208Z,4.91
2023-01-17T06:58:02.886Z,4.88
2023-01-17T07:00:34.888Z,4.86
2023-01-17T07:03:02.081Z,4.91
2023-01-17T07:05:29.329Z,4.94
2023-01-17T07:07:57.453Z,4.93
2023-01-17T07:10:24.496Z,4.88
2023-01-17T07:12:51.616Z,4.92
2023-01-17T07:15:18.878Z,4.91
2023-01-17T07:18:07.930Z,4.95
2023-01-17T07:20:35.082Z,4.88
2023-01-17T07:23:02.160Z,4.92
2023-01-17T07:25:29.457Z,4.94
2023-01-17T07:27:57.555Z,4.90
2023-01-17T07:30:25.263Z,4.93
2023-01-17T07:32:53.976Z,4.93
2023-01-17T07:35:22.325Z,4.94
2023-01-17T07:37:51.362Z,4.93
2023-01-17T07:40:20.725Z,4.93
2023-01-17T07:42:50.847Z,4.95
2023-01-17T07:45:18.137Z,4.96
2023-01-17T07:47:45.501Z,4.98
2023-01-17T07:50:13.598Z,4.98
2023-01-17T07:52:41.024Z,4.97
2023-01-17T07:55:09.594Z,4.98
2023-01-17T07:57:36.632Z,4.99
2023-01-17T08:00:05.752Z,4.94
2023-01-17T08:02:32.823Z,4.98
2023-01-17T08:04:59.814Z,5.03
2023-01-17T08:07:26.840Z,5.02
2023-01-17T08:09:54.745Z,4.89
2023-01-17T08:12:21.751Z,4.95
2023-01-17T08:14:48.813Z,4.97
2023-01-17T08:17:21.800Z,4.99
2023-01-17T08:19:53.078Z,5.06
2023-01-17T08:22:22.424Z,5.07
2023-01-17T08:24:49.887Z,5.01
2023-01-17T08:27:17.101Z,5.02
2023-01-17T08:29:47.218Z,5.00
2023-01-17T08:32:15.799Z,5.06
2023-01-17T08:34:42.880Z,5.05
2023-01-17T08:37:09.903Z,5.09
2023-01-17T08:39:37.030Z,5.01
2023-01-17T08:42:04.347Z,5.11
2023-01-17T08:44:31.466Z,5.17
2023-01-17T08:46:59.080Z,5.18
2023-01-17T08:49:28.303Z,5.15
2023-01-17T08:51:55.563Z,5.16
2023-01-17T08:54:22.962Z,5.10
2023-01-17T08:56:52.691Z,5.01
2023-01-17T08:59:19.770Z,5.17
2023-01-17T09:01:46.994Z,5.30
2023-01-17T09:04:15.303Z,5.34
2023-01-17T09:06:48.401Z,5.21
2023-01-17T09:09:18.822Z,5.26
2023-01-17T09:11:45.857Z,5.17
2023-01-17T09:14:13.818Z,5.19
2023-01-17T09:16:40.898Z,5.15
2023-01-17T09:19:08.899Z,5.26
2023-01-17T09:21:36.150Z,5.18
2023-01-17T09:24:03.461Z,5.34
2023-01-17T09:26:31.321Z,5.46
2023-01-17T09:28:58.776Z,5.33
2023-01-17T09:31:29.737Z,5.37
2023-01-17T09:33:58.760Z,5.30
2023-01-17T09:36:28.919Z,5.34
2023-01-17T09:38:58.808Z,5.37
2023-01-17T09:41:56.813Z,5.42
2023-01-17T09:44:51.565Z,5.38
2023-01-17T09:47:46.073Z,5.45
2023-01-17T09:50:25.696Z,5.45
2023-01-17T09:53:14.731Z,5.32
2023-01-17T09:55:52.558Z,5.18
2023-01-17T09:58:53.225Z,5.07
2023-01-17T10:02:23.813Z,5.14
2023-01-17T10:06:07.305Z,5.20
2023-01-17T10:09:13.438Z,5.35
2023-01-17T10:12:11.346Z,5.57
2023-01-17T10:15:14.893Z,5.58
2023-01-17T10:18:30.000Z,5.55
2023-01-17T10:21:13.074Z,5.51
2023-01-17T10:24:10.919Z,5.46
2023-01-17T10:26:38.927Z,5.28
2023-01-17T10:29:20.150Z,5.40
2023-01-17T10:32:02.123Z,5.43
2023-01-17T10:34:44.151Z,5.41
2023-01-17T10:37:30.273Z,5.55
2023-01-17T10:40:38.346Z,5.56
2023-01-17T10:43:30.666Z,5.55
2023-01-17T10:46:01.370Z,5.34
2023-01-17T10:48:44.101Z,5.33
2023-01-17T10:52:00.692Z,5.16
2023-01-17T10:55:08.662Z,5.05
2023-01-17T10:57:44.906Z,5.04
2023-01-17T11:01:00.248Z,5.02
2023-01-17T11:03:28.683Z,5.06
2023-01-17T11:06:16.032Z,4.89
2023-01-17T11:08:57.366Z,5.01
2023-01-17T11:11:32.343Z,4.97
2023-01-17T11:14:24.689Z,5.01
2023-01-17T11:17:06.615Z,5.04
2023-01-17T11:19:39.368Z,5.02
2023-01-17T11:22:13.860Z,4.97
2023-01-17T11:25:00.108Z,4.92
2023-01-17T11:27:41.136Z,4.94
2023-01-17T11:30:18.373Z,5.16
2023-01-17T11:33:03.150Z,5.27
2023-01-17T11:35:45.150Z,5.49
2023-01-17T11:38:25.534Z,5.32
2023-01-17T11:41:15.791Z,5.32
2023-01-17T11:43:55.710Z,5.07
2023-01-17T11:46:23.927Z,5.03
2023-01-17T11:48:57.170Z,4.79
2023-01-17T11:51:42.557Z,4.94
2023-01-17T11:54:28.466Z,4.87
2023-01-17T11:57:02.314Z,4.72
2023-01-17T11:59:35.254Z,4.54
2023-01-17T12:02:39.682Z,4.41
2023-01-17T12:06:13.751Z,4.32
2023-01-17T12:09:23.087Z,3.88
2023-01-17T12:12:45.564Z,4.13
2023-01-17T12:15:50.877Z,4.66
2023-01-17T12:19:18.402Z,4.96
2023-01-17T12:22:04.714Z,4.97
2023-01-17T12:24:45.098Z,5.01
2023-01-17T12:28:08.711Z,4.80
2023-01-17T12:31:03.195Z,4.72
2023-01-17T12:33:45.913Z,4.72
2023-01-17T12:36:54.112Z,4.73
2023-01-17T12:39:30.910Z,4.74
2023-01-17T12:42:20.448Z,4.87
2023-01-17T12:45:11.884Z,4.82
2023-01-17T12:47:49.008Z,4.90
2023-01-17T12:51:06.413Z,5.00
2023-01-17T12:54:05.337Z,5.23
2023-01-17T12:57:09.041Z,5.21
2023-01-17T13:00:08.275Z,5.35
2023-01-17T13:03:03.721Z,5.30
2023-01-17T13:05:47.371Z,5.28
2023-01-17T13:08:40.921Z,5.19
2023-01-17T13:11:28.578Z,5.24
2023-01-17T13:13:57.500Z,5.30
2023-01-17T13:16:46.320Z,5.29
2023-01-17T13:19:29.640Z,5.43
2023-01-17T13:21:57.861Z,5.39
2023-01-17T13:24:55.579Z,5.49
2023-01-17T13:28:03.784Z,5.34
2023-01-17T13:30:58.227Z,5.47
2023-01-17T13:34:14.265Z,5.31
2023-01-17T13:37:27.039Z,5.39
2023-01-17T13:40:53.594Z,5.30
2023-01-17T13:43:34.346Z,5.18
2023-01-17T13:46:03.642Z,5.12
2023-01-17T13:48:40.980Z,5.07
2023-01-17T13:51:11.576Z,5.05
2023-01-17T13:53:41.429Z,5.02
2023-01-17T13:56:19.102Z,5.01
2023-01-17T13:58:50.150Z,4.87
2023-01-17T14:01:23.045Z,4.96
2023-01-17T14:03:50.097Z,4.89
2023-01-17T14:06:59.422Z,4.83
2023-01-17T14:09:40.865Z,4.81
2023-01-17T14:12:10.404Z,4.91
2023-01-17T14:14:40.234Z,4.89
2023-01-17T14:17:16.346Z,4.81
2023-01-17T14:19:51.978Z,4.74
2023-01-17T14:22:18.836Z,4.76
2023-01-17T14:25:17.402Z,4.74
2023-01-17T14:27:51.716Z,4.71
2023-01-17T14:30:31.915Z,4.67
2023-01-17T14:33:01.893Z,4.60
2023-01-17T14:35:37.483Z,4.78
2023-01-17T14:38:29.805Z,4.81
2023-01-17T14:41:09.592Z,4.72
2023-01-17T14:43:45.199Z,4.85
2023-01-17T14:46:29.369Z,4.85
2023-01-17T14:49:06.162Z,4.80
2023-01-17T14:51:38.454Z,4.79
2023-01-17T14:54:22.259Z,4.72
2023-01-17T14:56:52.281Z,4.58
2023-01-17T14:59:23.668Z,4.54
2023-01-17T15:02:08.156Z,4.59
2023-01-17T15:04:39.300Z,4.64
2023-01-17T15:07:07.496Z,4.61
2023-01-17T15:09:37.723Z,4.68
2023-01-17T15:12:08.450Z,4.25
2023-01-17T15:14:43.650Z,4.14
2023-01-17T15:17:26.463Z,4.11
2023-01-17T15:20:00.225Z,4.06
2023-01-17T15:22:29.626Z,3.97
2023-01-17T15:24:58.496Z,4.12
2023-01-17T15:27:26.538Z,4.20
2023-01-17T15:29:59.112Z,4.22
2023-01-17T15:32:31.077Z,4.15
2023-01-17T15:34:59.381Z,4.08
2023-01-17T15:37:39.887Z,4.13
2023-01-17T15:40:11.442Z,4.01
2023-01-17T15:42:42.503Z,4.12
2023-01-17T15:45:22.494Z,4.07
2023-01-17T15:47:49.875Z,4.04
2023-01-17T15:50:32.004Z,3.96
2023-01-17T15:53:05.093Z,3.80
2023-01-17T15:55:38.897Z,3.76
2023-01-17T15:58:27.625Z,3.74
2023-01-17T16:00:55.453Z,3.71
2023-01-17T16:03:29.499Z,3.68
2023-01-17T16:06:00.534Z,3.64
2023-01-17T16:08:40.092Z,3.64
2023-01-17T16:11:11.512Z,3.52
2023-01-17T16:13:47.247Z,3.40
2023-01-17T16:16:24.608Z,3.15
2023-01-17T16:19:00.470Z,3.11
2023-01-17T16:21:31.569Z,3.15
2023-01-17T16:23:59.732Z,3.08
2023-01-17T16:26:28.897Z,3.13
2023-01-17T16:28:55.983Z,3.04
2023-01-17T16:31:26.234Z,3.04
2023-01-17T16:33:53.609Z,2.98
2023-01-17T16:36:22.809Z,2.92
2023-01-17T16:38:51.858Z,2.81
2023-01-17T16:41:20.327Z,2.81
2023-01-17T16:44:05.298Z,2.69
2023-01-17T16:46:32.806Z,2.73
2023-01-17T16:49:01.119Z,2.70
2023-01-17T16:51:28.169Z,2.69
2023-01-17T16:53:55.224Z,2.62
2023-01-17T16:56:22.363Z,2.61
2023-01-17T16:58:53.060Z,2.59
2023-01-17T17:01:22.472Z,2.60
2023-01-17T17:03:49.708Z,2.59
2023-01-17T17:06:17.043Z,1.96
2023-01-17T17:08:44.240Z,1.86
2023-01-17T17:11:19.812Z,1.48
2023-01-17T17:13:49.450Z,1.23
2023-01-17T17:16:30.886Z,1.21
2023-01-17T17:19:05.135Z,1.54
2023-01-17T17:21:34.345Z,1.74
2023-01-17T17:24:02.369Z,1.72
2023-01-17T17:26:36.711Z,1.80
2023-01-17T17:29:06.463Z,1.73
2023-01-17T17:31:33.671Z,1.51
2023-01-17T17:34:03.894Z,1.22
2023-01-17T17:36:31.478Z,0.91
2023-01-17T17:38:59.012Z,0.85
2023-01-17T17:41:30.413Z,1.14
2023-01-17T17:43:59.997Z,1.03
2023-01-17T17:46:29.111Z,1.21
2023-01-17T17:48:58.393Z,1.20
2023-01-17T17:51:36.332Z,1.19
2023-01-17T17:54:11.061Z,1.28
2023-01-17T17:56:39.684Z,1.02
2023-01-17T17:59:09.383Z,0.89
2023-01-17T18:01:38.214Z,0.45
2023-01-17T18:04:07.439Z,0.28
2023-01-17T18:06:36.089Z,0.22
2023-01-17T18:09:03.586Z,0.63
2023-01-17T18:11:31.879Z,0.90
2023-01-17T18:14:02.597Z,1.04
2023-01-17T18:16:39.431Z,1.14
2023-01-17T18:19:06.534Z,1.23
2023-01-17T18:21:38.096Z,0.93
2023-01-17T18:24:12.866Z,0.87
2023-01-17T18:26:50.092Z,0.35
2023-01-17T18:29:21.786Z,0.38
2023-01-17T18:31:51.662Z,0.29
2023-01-17T18:34:27.053Z,0.14
2023-01-17T18:36:54.671Z,-0.03
2023-01-17T18:39:27.661Z,-0.10
2023-01-17T18:41:54.872Z,0.00
2023-01-17T18:44:24.664Z,0.23
2023-01-17T18:46:54.858Z,0.11
2023-01-17T18:49:22.492Z,-0.20
2023-01-17T18:51:51.122Z,-0.22
2023-01-17T18:54:20.458Z,-0.08
2023-01-17T18:56:48.075Z,0.11
2023-01-17T18:59:18.428Z,0.29
2023-01-17T19:01:46.193Z,0.40
2023-01-17T19:04:16.366Z,0.26
2023-01-17T19:06:47.788Z,0.24
2023-01-17T19:09:16.246Z,-0.02
2023-01-17T19:11:45.352Z,-0.25
2023-01-17T19:14:13.261Z,-0.24
2023-01-17T19:16:42.031Z,0.05
2023-01-17T19:19:14.252Z,-0.02
2023-01-17T19:21:41.713Z,-0.15
2023-01-17T19:24:10.848Z,-0.10
2023-01-17T19:26:37.905Z,-0.35
2023-01-17T19:29:06.640Z,-0.47
2023-01-17T19:31:44.326Z,-0.63
2023-01-17T19:34:14.137Z,-0.70
2023-01-17T19:36:41.383Z,-0.67
2023-01-17T19:39:11.865Z,-0.60
2023-01-17T19:41:44.513Z,-0.18
2023-01-17T19:44:14.280Z,0.00
2023-01-17T19:46:41.380Z,0.15
2023-01-17T19:49:09.921Z,0.02
2023-01-17T19:51:39.352Z,-0.28
2023-01-17T19:54:09.426Z,-0.50
2023-01-17T19:56:36.695Z,-0.66
2023-01-17T19:59:04.358Z,-0.87
2023-01-17T20:01:34.260Z,-1.14
2023-01-17T20:04:03.763Z,-1.09
2023-01-17T20:06:35.659Z,-1.20
2023-01-17T20:09:05.110Z,-1.06
2023-01-17T20:11:32.407Z,-1.02
2023-01-17T20:14:00.286Z,-1.12
2023-01-17T20:16:31.357Z,-1.26
2023-01-17T20:19:00.073Z,-1.43
2023-01-17T20:21:30.165Z,-1.39
2023-01-17T20:23:59.973Z,-1.18
2023-01-17T20:26:34.768Z,-1.05
2023-01-17T20:29:11.677Z,-1.00
2023-01-17T20:31:41.415Z,-1.11
2023-01-17T20:34:12.513Z,-1.10
2023-01-17T20:36:44.274Z,-1.06
2023-01-17T20:39:14.523Z,-1.27
2023-01-17T20:41:45.427Z,-1.45
2023-01-17T20:44:15.372Z,-1.60
2023-01-17T20:46:47.672Z,-1.86
2023-01-17T20:49:19.262Z,-1.82
2023-01-17T20:51:47.503Z,-1.60
2023-01-17T20:54:18.867Z,-1.52
2023-01-17T20:56:47.746Z,-1.66
2023-01-17T20:59:21.671Z,-1.70
2023-01-17T21:01:50.030Z,-1.58
2023-01-17T21:04:22.881Z,-1.50
2023-01-17T21:06:51.554Z,-1.37
2023-01-17T21:09:21.923Z,-1.25
2023-01-17T21:11:49.379Z,-1.21
2023-01-17T21:14:16.512Z,-1.53
2023-01-17T21:16:44.597Z,-1.74
2023-01-17T21:19:14.972Z,-1.64
2023-01-17T21:21:42.070Z,-1.79
2023-01-17T21:24:09.777Z,-2.16
2023-01-17T21:26:38.837Z,-2.19
2023-01-17T21:29:05.919Z,-1.91
2023-01-17T21:31:35.054Z,-1.81
2023-01-17T21:34:08.559Z,-1.52
2023-01-17T21:36:39.378Z,-1.58
2023-01-17T21:39:18.259Z,-1.49
2023-01-17T21:41:49.585Z,-1.60
2023-01-17T21:44:23.241Z,-1.54
2023-01-17T21:46:56.122Z,-1.33
2023-01-17T21:49:24.216Z,-1.51
2023-01-17T21:51:53.937Z,-1.89
2023-01-17T21:54:48.439Z,-2.24
2023-01-17T21:57:39.691Z,-2.27
2023-01-17T22:00:14.403Z,-2.11
2023-01-17T22:02:43.268Z,-1.89
2023-01-17T22:05:11.406Z,-1.88
2023-01-17T22:08:01.524Z,-2.07
2023-01-17T22:10:28.731Z,-2.06
2023-01-17T22:12:55.803Z,-2.05
2023-01-17T22:15:23.352Z,-2.01
2023-01-17T22:17:50.328Z,-1.95
2023-01-17T22:20:18.532Z,-2.08
2023-01-17T22:22:48.279Z,-2.09
2023-01-17T22:25:15.548Z,-2.10
2023-01-17T22:27:42.502Z,-2.18
2023-01-17T22:30:12.945Z,-2.17
2023-01-17T22:32:40.234Z,-2.05
2023-01-17T22:35:08.209Z,-1.90
2023-01-17T22:37:35.538Z,-1.67
2023-01-17T22:40:04.824Z,-1.53
2023-01-17T22:42:35.140Z,-1.41
2023-01-17T22:45:02.655Z,-1.34
2023-01-17T22:47:30.060Z,-1.52
2023-01-17T22:49:57.092Z,-1.81
2023-01-17T22:52:24.165Z,-2.17
2023-01-17T22:54:51.275Z,-2.38
2023-01-17T22:57:18.625Z,-2.42
2023-01-17T22:59:45.599Z,-2.45
2023-01-17T23:02:12.696Z,-2.58
2023-01-17T23:04:39.791Z,-2.70
2023-01-17T23:07:06.824Z,-2.70
2023-01-17T23:09:33.873Z,-2.65
2023-01-17T23:12:00.947Z,-2.15
2023-01-17T23:14:54.515Z,-2.35
2023-01-17T23:17:42.897Z,-2.44
2023-01-17T23:20:11.915Z,-2.45
2023-01-17T23:22:39.202Z,-2.30
2023-01-17T23:25:10.934Z,-2.18
2023-01-17T23:28:06.238Z,-2.10
2023-01-17T23:30:39.340Z,-2.10
2023-01-17T23:33:13.853Z,-2.20
2023-01-17T23:35:44.843Z,-2.36
2023-01-17T23:38:28.981Z,-2.45
2023-01-17T23:41:26.201Z,-2.49
2023-01-17T23:43:58.878Z,-2.16
2023-01-17T23:46:27.110Z,-2.00
2023-01-17T23:48:55.067Z,-2.03
2023-01-17T23:51:22.391Z,-2.14
2023-01-17T23:53:50.867Z,-2.01
2023-01-17T23:56:23.011Z,-2.06
2023-01-17T23:58:50.159Z,-2.14
